sensor_id;sensor_type;location;lat;lon;timestamp;pressure;altitude;pressure_sealevel;temperature;humidity
12987;BME280;58897;51.960;5.582;2023-03-21T00:00:39;101425.94;;;9.03;100.00
12987;BME280;58897;51.960;5.582;2023-03-21T00:03:06;101420.38;;;9.05;100.00
12987;BME280;58897;51.960;5.582;2023-03-21T00:05:33;101428.34;;;8.97;100.00
12987;BME280;58897;51.960;5.582;2023-03-21T00:07:59;101428.03;;;9.00;100.00
12987;BME280;58897;51.960;5.582;2023-03-21T00:10:28;101424.06;;;8.94;100.00
12987;BME280;58897;51.960;5.582;2023-03-21T00:13:07;101425.19;;;8.92;100.00
12987;BME280;58897;51.960;5.582;2023-03-21T00:15:34;101420.38;;;8.86;100.00
12987;BME280;58897;51.960;5.582;2023-03-21T00:18:35;101421.78;;;8.90;100.00
12987;BME280;58897;51.960;5.582;2023-03-21T00:21:04;101423.06;;;8.86;100.00
12987;BME280;58897;51.960;5.582;2023-03-21T00:23:50;101417.53;;;8.87;100.00
12987;BME280;58897;51.960;5.582;2023-03-21T00:26:17;101413.72;;;8.90;100.00
12987;BME280;58897;51.960;5.582;2023-03-21T00:28:43;101415.53;;;8.89;100.00
12987;BME280;58897;51.960;5.582;2023-03-21T00:31:10;101415.25;;;8.83;100.00
12987;BME280;58897;51.960;5.582;2023-03-21T00:33:36;101411.00;;;8.80;100.00
12987;BME280;58897;51.960;5.582;2023-03-21T00:36:07;101408.16;;;8.82;100.00
12987;BME280;58897;51.960;5.582;2023-03-21T00:38:35;101413.53;;;8.82;100.00
12987;BME280;58897;51.960;5.582;2023-03-21T00:41:04;101410.16;;;8.80;100.00
12987;BME280;58897;51.960;5.582;2023-03-21T00:43:48;101409.16;;;8.81;100.00
12987;BME280;58897;51.960;5.582;2023-03-21T00:46:15;101401.78;;;8.83;100.00
12987;BME280;58897;51.960;5.582;2023-03-21T00:48:41;101408.16;;;8.82;100.00
12987;BME280;58897;51.960;5.582;2023-03-21T00:51:13;101394.41;;;8.75;100.00
12987;BME280;58897;51.960;5.582;2023-03-21T00:53:41;101392.56;;;8.76;100.00
12987;BME280;58897;51.960;5.582;2023-03-21T00:56:08;101396.94;;;8.77;100.00
12987;BME280;58897;51.960;5.582;2023-03-21T00:58:35;101383.34;;;8.78;100.00
12987;BME280;58897;51.960;5.582;2023-03-21T01:01:02;101376.41;;;8.76;100.00
12987;BME280;58897;51.960;5.582;2023-03-21T01:03:29;101376.41;;;8.76;100.00
12987;BME280;58897;51.960;5.582;2023-03-21T01:05:56;101375.13;;;8.70;100.00
12987;BME280;58897;51.960;5.582;2023-03-21T01:08:37;101381.78;;;8.76;100.00
12987;BME280;58897;51.960;5.582;2023-03-21T01:11:25;101370.28;;;8.74;100.00
12987;BME280;58897;51.960;5.582;2023-03-21T01:13:52;101374.84;;;8.73;100.00
12987;BME280;58897;51.960;5.582;2023-03-21T01:16:30;101362.78;;;8.77;100.00
12987;BME280;58897;51.960;5.582;2023-03-21T01:18:57;101366.34;;;8.78;100.00
12987;BME280;58897;51.960;5.582;2023-03-21T01:21:23;101352.59;;;8.81;100.00
12987;BME280;58897;51.960;5.582;2023-03-21T01:23:50;101352.72;;;8.79;100.00
12987;BME280;58897;51.960;5.582;2023-03-21T01:26:17;101349.47;;;8.76;100.00
12987;BME280;58897;51.960;5.582;2023-03-21T01:28:44;101343.94;;;8.77;100.00
12987;BME280;58897;51.960;5.582;2023-03-21T01:31:13;101348.34;;;8.78;100.00
12987;BME280;58897;51.960;5.582;2023-03-21T01:33:40;101338.13;;;8.82;100.00
12987;BME280;58897;51.960;5.582;2023-03-21T01:36:08;101345.38;;;8.81;100.00
12987;BME280;58897;51.960;5.582;2023-03-21T01:38:39;101343.50;;;8.82;100.00
12987;BME280;58897;51.960;5.582;2023-03-21T01:41:05;101337.28;;;8.81;100.00
12987;BME280;58897;51.960;5.582;2023-03-21T01:43:44;101343.94;;;8.77;100.00
12987;BME280;58897;51.960;5.582;2023-03-21T01:46:38;101338.69;;;8.76;100.00
12987;BME280;58897;51.960;5.582;2023-03-21T01:49:26;101338.81;;;8.74;100.00
12987;BME280;58897;51.960;5.582;2023-03-21T01:51:58;101336.97;;;8.75;100.00
12987;BME280;58897;51.960;5.582;2023-03-21T01:54:38;101332.28;;;8.77;100.00
12987;BME280;58897;51.960;5.582;2023-03-21T01:57:10;101330.88;;;8.73;100.00
12987;BME280;58897;51.960;5.582;2023-03-21T01:59:47;101319.97;;;8.74;100.00
12987;BME280;58897;51.960;5.582;2023-03-21T02:02:19;101309.19;;;8.74;100.00
12987;BME280;58897;51.960;5.582;2023-03-21T02:04:48;101312.47;;;8.68;100.00
12987;BME280;58897;51.960;5.582;2023-03-21T02:07:27;101321.25;;;8.70;100.00
12987;BME280;58897;51.960;5.582;2023-03-21T02:09:54;101309.19;;;8.74;100.00
12987;BME280;58897;51.960;5.582;2023-03-21T02:12:21;101310.47;;;8.70;100.00
12987;BME280;58897;51.960;5.582;2023-03-21T02:14:49;101305.94;;;8.71;100.00
12987;BME280;58897;51.960;5.582;2023-03-21T02:17:34;101307.91;;;8.68;100.00
12987;BME280;58897;51.960;5.582;2023-03-21T02:29:09;101300.56;;;8.71;100.00
12987;BME280;58897;51.960;5.582;2023-03-21T02:37:39;101291.63;;;8.80;100.00
12987;BME280;58897;51.960;5.582;2023-03-21T02:40:22;101289.03;;;8.68;100.00
12987;BME280;58897;51.960;5.582;2023-03-21T02:43:03;101282.94;;;8.66;100.00
12987;BME280;58897;51.960;5.582;2023-03-21T02:45:49;101288.91;;;8.70;100.00
12987;BME280;58897;51.960;5.582;2023-03-21T02:48:24;101286.66;;;8.75;100.00
12987;BME280;58897;51.960;5.582;2023-03-21T02:51:17;101284.41;;;8.71;100.00
12987;BME280;58897;51.960;5.582;2023-03-21T02:53:49;101277.00;;;8.73;100.00
12987;BME280;58897;51.960;5.582;2023-03-21T02:56:38;101275.72;;;8.77;100.00
12987;BME280;58897;51.960;5.582;2023-03-21T02:59:06;101273.72;;;8.79;100.00
12987;BME280;58897;51.960;5.582;2023-03-21T03:01:33;101278.56;;;8.75;100.00
12987;BME280;58897;51.960;5.582;2023-03-21T03:04:00;101277.16;;;8.81;100.00
12987;BME280;58897;51.960;5.582;2023-03-21T03:06:33;101265.66;;;8.79;100.00
12987;BME280;58897;51.960;5.582;2023-03-21T03:11:49;101260.69;;;8.74;100.00
12987;BME280;58897;51.960;5.582;2023-03-21T03:14:49;101262.53;;;8.74;100.00
12987;BME280;58897;51.960;5.582;2023-03-21T03:17:51;101272.06;;;8.68;100.00
12987;BME280;58897;51.960;5.582;2023-03-21T03:20:27;101271.91;;;8.69;100.00
12987;BME280;58897;51.960;5.582;2023-03-21T03:23:04;101268.50;;;8.67;100.00
12987;BME280;58897;51.960;5.582;2023-03-21T03:25:46;101266.53;;;8.69;100.00
12987;BME280;58897;51.960;5.582;2023-03-21T03:28:20;101262.25;;;8.67;100.00
12987;BME280;58897;51.960;5.582;2023-03-21T03:30:49;101263.41;;;8.64;100.00
12987;BME280;58897;51.960;5.582;2023-03-21T03:33:35;101263.13;;;8.67;100.00
12987;BME280;58897;51.960;5.582;2023-03-21T03:36:05;101259.13;;;8.72;100.00
12987;BME280;58897;51.960;5.582;2023-03-21T03:38:37;101254.75;;;8.71;100.00
12987;BME280;58897;51.960;5.582;2023-03-21T03:41:20;101261.41;;;8.66;100.00
12987;BME280;58897;51.960;5.582;2023-03-21T03:43:50;101258.28;;;8.61;100.00
12987;BME280;58897;51.960;5.582;2023-03-21T03:46:59;101249.63;;;8.58;100.00
12987;BME280;58897;51.960;5.582;2023-03-21T03:49:30;101256.72;;;8.59;100.00
12987;BME280;58897;51.960;5.582;2023-03-21T03:52:12;101250.22;;;8.61;100.00
12987;BME280;58897;51.960;5.582;2023-03-21T03:54:45;101242.56;;;8.66;100.00
12987;BME280;58897;51.960;5.582;2023-03-21T03:57:13;101239.28;;;8.63;100.00
12987;BME280;58897;51.960;5.582;2023-03-21T03:59:42;101242.56;;;8.66;100.00
12987;BME280;58897;51.960;5.582;2023-03-21T04:02:09;101232.34;;;8.60;100.00
12987;BME280;58897;51.960;5.582;2023-03-21T04:04:36;101238.72;;;8.59;100.00
12987;BME280;58897;51.960;5.582;2023-03-21T04:07:03;101235.88;;;8.61;100.00
12987;BME280;58897;51.960;5.582;2023-03-21T04:09:30;101234.31;;;8.58;100.00
12987;BME280;58897;51.960;5.582;2023-03-21T04:12:08;101240.16;;;8.54;100.00
12987;BME280;58897;51.960;5.582;2023-03-21T04:14:35;101233.34;;;8.59;100.00
12987;BME280;58897;51.960;5.582;2023-03-21T04:17:11;101228.81;;;8.60;100.00
12987;BME280;58897;51.960;5.582;2023-03-21T04:19:37;101229.78;;;8.59;100.00
12987;BME280;58897;51.960;5.582;2023-03-21T04:22:04;101229.53;;;8.62;100.00
12987;BME280;58897;51.960;5.582;2023-03-21T04:24:31;101231.94;;;8.65;100.00
12987;BME280;58897;51.960;5.582;2023-03-21T04:26:59;101225.28;;;8.59;100.00
12987;BME280;58897;51.960;5.582;2023-03-21T04:29:26;101222.44;;;8.51;100.00
12987;BME280;58897;51.960;5.582;2023-03-21T04:31:55;101225.38;;;8.58;100.00
12987;BME280;58897;51.960;5.582;2023-03-21T04:34:22;101224.84;;;8.54;100.00
12987;BME280;58897;51.960;5.582;2023-03-21T04:36:49;101212.66;;;8.60;100.00
12987;BME280;58897;51.960;5.582;2023-03-21T04:39:20;101217.75;;;8.53;100.00
12987;BME280;58897;51.960;5.582;2023-03-21T04:41:47;101222.69;;;8.58;100.00
12987;BME280;58897;51.960;5.582;2023-03-21T04:44:15;101213.91;;;8.56;100.00
12987;BME280;58897;51.960;5.582;2023-03-21T04:46:42;101221.56;;;8.60;100.00
12987;BME280;58897;51.960;5.582;2023-03-21T04:49:09;101210.66;;;8.62;100.00
12987;BME280;58897;51.960;5.582;2023-03-21T04:51:36;101214.94;;;8.55;100.00
12987;BME280;58897;51.960;5.582;2023-03-21T04:54:03;101215.63;;;8.57;100.00
12987;BME280;58897;51.960;5.582;2023-03-21T04:56:31;101206.13;;;8.53;100.00
12987;BME280;58897;51.960;5.582;2023-03-21T04:59:07;101200.19;;;8.59;100.00
12987;BME280;58897;51.960;5.582;2023-03-21T05:01:34;101202.44;;;8.54;100.00
12987;BME280;58897;51.960;5.582;2023-03-21T05:04:02;101205.84;;;8.56;100.00
12987;BME280;58897;51.960;5.582;2023-03-21T05:06:29;101203.16;;;8.56;100.00
12987;BME280;58897;51.960;5.582;2023-03-21T05:08:58;101201.31;;;8.56;100.00
12987;BME280;58897;51.960;5.582;2023-03-21T05:11:26;101203.44;;;8.53;100.00
12987;BME280;58897;51.960;5.582;2023-03-21T05:13:53;101198.06;;;8.62;100.00
12987;BME280;58897;51.960;5.582;2023-03-21T05:16:19;101197.03;;;8.63;100.00
12987;BME280;58897;51.960;5.582;2023-03-21T05:18:51;101196.63;;;8.58;100.00
12987;BME280;58897;51.960;5.582;2023-03-21T05:21:22;101195.66;;;8.59;100.00
12987;BME280;58897;51.960;5.582;2023-03-21T05:23:48;101194.22;;;8.55;100.00
12987;BME280;58897;51.960;5.582;2023-03-21T05:26:21;101187.56;;;8.59;100.00
12987;BME280;58897;51.960;5.582;2023-03-21T05:28:48;101184.31;;;8.56;100.00
12987;BME280;58897;51.960;5.582;2023-03-21T05:31:16;101183.31;;;8.57;100.00
12987;BME280;58897;51.960;5.582;2023-03-21T05:33:44;101185.72;;;8.60;100.00
12987;BME280;58897;51.960;5.582;2023-03-21T05:36:11;101186.72;;;8.59;100.00
12987;BME280;58897;51.960;5.582;2023-03-21T05:38:38;101181.03;;;8.62;100.00
12987;BME280;58897;51.960;5.582;2023-03-21T05:41:08;101181.59;;;8.56;100.00
12987;BME280;58897;51.960;5.582;2023-03-21T05:43:34;101171.97;;;8.53;100.00
12987;BME280;58897;51.960;5.582;2023-03-21T05:46:01;101181.03;;;8.62;100.00
12987;BME280;58897;51.960;5.582;2023-03-21T05:48:27;101176.91;;;8.58;100.00
12987;BME280;58897;51.960;5.582;2023-03-21T05:50:54;101175.66;;;8.62;100.00
12987;BME280;58897;51.960;5.582;2023-03-21T05:53:20;101171.25;;;8.61;100.00
12987;BME280;58897;51.960;5.582;2023-03-21T05:55:48;101176.22;;;8.56;100.00
12987;BME280;58897;51.960;5.582;2023-03-21T05:58:15;101173.25;;;8.49;100.00
12987;BME280;58897;51.960;5.582;2023-03-21T06:00:41;101168.84;;;8.58;100.00
12987;BME280;58897;51.960;5.582;2023-03-21T06:03:08;101169.97;;;8.55;100.00
12987;BME280;58897;51.960;5.582;2023-03-21T06:05:34;101170.72;;;8.57;100.00
12987;BME280;58897;51.960;5.582;2023-03-21T06:08:02;101173.69;;;8.54;100.00
12987;BME280;58897;51.960;5.582;2023-03-21T06:10:28;101178.91;;;8.56;100.00
12987;BME280;58897;51.960;5.582;2023-03-21T06:12:55;101174.97;;;8.60;100.00
12987;BME280;58897;51.960;5.582;2023-03-21T06:15:22;101173.53;;;8.56;100.00
12987;BME280;58897;51.960;5.582;2023-03-21T06:17:49;101169.56;;;8.60;100.00
12987;BME280;58897;51.960;5.582;2023-03-21T06:20:15;101167.41;;;8.63;100.00
12987;BME280;58897;51.960;5.582;2023-03-21T06:22:42;101173.25;;;8.59;100.00
12987;BME280;58897;51.960;5.582;2023-03-21T06:25:09;101162.91;;;8.64;100.00
12987;BME280;58897;51.960;5.582;2023-03-21T06:27:36;101167.41;;;8.63;100.00
12987;BME280;58897;51.960;5.582;2023-03-21T06:30:04;101163.59;;;8.66;100.00
12987;BME280;58897;51.960;5.582;2023-03-21T06:32:31;101169.41;;;8.61;100.00
12987;BME280;58897;51.960;5.582;2023-03-21T06:34:57;101165.59;;;8.64;100.00
12987;BME280;58897;51.960;5.582;2023-03-21T06:37:24;101170.53;;;8.68;100.00
12987;BME280;58897;51.960;5.582;2023-03-21T06:39:52;101171.94;;;8.63;100.00
12987;BME280;58897;51.960;5.582;2023-03-21T06:42:20;101170.00;;;8.65;100.00
12987;BME280;58897;51.960;5.582;2023-03-21T06:44:47;101174.78;;;8.71;100.00
12987;BME280;58897;51.960;5.582;2023-03-21T06:47:13;101167.97;;;8.77;100.00
12987;BME280;58897;51.960;5.582;2023-03-21T06:49:41;101169.41;;;8.71;100.00
12987;BME280;58897;51.960;5.582;2023-03-21T06:52:09;101176.91;;;8.77;100.00
12987;BME280;58897;51.960;5.582;2023-03-21T06:54:36;101172.22;;;8.79;100.00
12987;BME280;58897;51.960;5.582;2023-03-21T06:57:03;101169.00;;;8.76;100.00
12987;BME280;58897;51.960;5.582;2023-03-21T06:59:30;101178.75;;;8.77;100.00
12987;BME280;58897;51.960;5.582;2023-03-21T07:01:57;101165.00;;;8.80;100.00
12987;BME280;58897;51.960;5.582;2023-03-21T07:04:23;101166.56;;;8.82;100.00
12987;BME280;58897;51.960;5.582;2023-03-21T07:06:50;101167.13;;;8.86;100.00
12987;BME280;58897;51.960;5.582;2023-03-21T07:09:17;101169.81;;;8.86;100.00
12987;BME280;58897;51.960;5.582;2023-03-21T07:11:45;101173.94;;;8.80;100.00
12987;BME280;58897;51.960;5.582;2023-03-21T07:14:11;101168.97;;;8.85;100.00
12987;BME280;58897;51.960;5.582;2023-03-21T07:16:38;101177.63;;;8.89;100.00
12987;BME280;58897;51.960;5.582;2023-03-21T07:19:04;101173.78;;;8.91;100.00
12987;BME280;58897;51.960;5.582;2023-03-21T07:21:31;101175.63;;;8.91;100.00
12987;BME280;58897;51.960;5.582;2023-03-21T07:23:58;101171.91;;;8.92;100.00
12987;BME280;58897;51.960;5.582;2023-03-21T07:26:24;101175.75;;;8.89;100.00
12987;BME280;58897;51.960;5.582;2023-03-21T07:28:51;101175.75;;;8.89;100.00
12987;BME280;58897;51.960;5.582;2023-03-21T07:31:18;101182.72;;;8.82;100.00
12987;BME280;58897;51.960;5.582;2023-03-21T07:33:45;101179.59;;;8.87;100.00
12987;BME280;58897;51.960;5.582;2023-03-21T07:36:13;101179.31;;;8.90;100.00
12987;BME280;58897;51.960;5.582;2023-03-21T07:38:44;101183.56;;;8.92;100.00
12987;BME280;58897;51.960;5.582;2023-03-21T07:41:12;101186.81;;;8.96;100.00
12987;BME280;58897;51.960;5.582;2023-03-21T07:43:38;101184.81;;;8.98;100.00
12987;BME280;58897;51.960;5.582;2023-03-21T07:46:05;101179.16;;;9.01;100.00
12987;BME280;58897;51.960;5.582;2023-03-21T07:48:32;101186.38;;;9.00;100.00
12987;BME280;58897;51.960;5.582;2023-03-21T07:50:59;101187.94;;;9.03;100.00
12987;BME280;58897;51.960;5.582;2023-03-21T07:53:27;101190.19;;;9.07;100.00
12987;BME280;58897;51.960;5.582;2023-03-21T07:55:54;101190.75;;;9.11;100.00
12987;BME280;58897;51.960;5.582;2023-03-21T07:58:25;101179.41;;;9.17;100.00
12987;BME280;58897;51.960;5.582;2023-03-21T08:00:52;101173.44;;;9.13;100.00
12987;BME280;58897;51.960;5.582;2023-03-21T08:03:20;101168.88;;;9.23;100.00
12987;BME280;58897;51.960;5.582;2023-03-21T08:05:49;101166.88;;;9.25;100.00
12987;BME280;58897;51.960;5.582;2023-03-21T08:08:16;101166.63;;;9.19;100.00
12987;BME280;58897;51.960;5.582;2023-03-21T08:10:42;101157.38;;;9.21;100.00
12987;BME280;58897;51.960;5.582;2023-03-21T08:13:11;101146.78;;;9.20;100.00
12987;BME280;58897;51.960;5.582;2023-03-21T08:15:38;101152.28;;;9.28;100.00
12987;BME280;58897;51.960;5.582;2023-03-21T08:18:07;101150.56;;;9.27;100.00
12987;BME280;58897;51.960;5.582;2023-03-21T08:20:34;101146.16;;;9.26;100.00
12987;BME280;58897;51.960;5.582;2023-03-21T08:23:01;101153.38;;;9.25;100.00
12987;BME280;58897;51.960;5.582;2023-03-21T08:25:27;101157.66;;;9.28;100.00
12987;BME280;58897;51.960;5.582;2023-03-21T08:27:54;101150.97;;;9.32;100.00
12987;BME280;58897;51.960;5.582;2023-03-21T08:30:22;101149.16;;;9.23;100.00
12987;BME280;58897;51.960;5.582;2023-03-21T08:32:49;101142.59;;;9.25;100.00
12987;BME280;58897;51.960;5.582;2023-03-21T08:35:17;101150.28;;;9.20;100.00
12987;BME280;58897;51.960;5.582;2023-03-21T08:37:44;101145.31;;;9.25;100.00
12987;BME280;58897;51.960;5.582;2023-03-21T08:40:17;101133.94;;;9.31;100.00
12987;BME280;58897;51.960;5.582;2023-03-21T08:42:44;101134.22;;;9.28;100.00
12987;BME280;58897;51.960;5.582;2023-03-21T08:45:13;101139.50;;;9.30;100.00
12987;BME280;58897;51.960;5.582;2023-03-21T08:47:40;101140.03;;;9.33;100.00
12987;BME280;58897;51.960;5.582;2023-03-21T08:50:10;101135.75;;;9.41;100.00
12987;BME280;58897;51.960;5.582;2023-03-21T08:52:36;101136.16;;;9.46;100.00
12987;BME280;58897;51.960;5.582;2023-03-21T08:55:04;101138.47;;;9.41;100.00
12987;BME280;58897;51.960;5.582;2023-03-21T08:57:30;101140.84;;;9.44;100.00
12987;BME280;58897;51.960;5.582;2023-03-21T08:59:57;101134.63;;;9.43;100.00
12987;BME280;58897;51.960;5.582;2023-03-21T09:02:23;101121.94;;;9.53;100.00
12987;BME280;58897;51.960;5.582;2023-03-21T09:04:50;101119.97;;;9.46;100.00
12987;BME280;58897;51.960;5.582;2023-03-21T09:07:20;101120.19;;;9.62;100.00
12987;BME280;58897;51.960;5.582;2023-03-21T09:09:47;101120.59;;;9.67;100.00
12987;BME280;58897;51.960;5.582;2023-03-21T09:12:28;101118.19;;;9.64;100.00
12987;BME280;58897;51.960;5.582;2023-03-21T09:14:54;101116.25;;;9.56;100.00
12987;BME280;58897;51.960;5.582;2023-03-21T09:17:21;101107.41;;;9.64;100.00
12987;BME280;58897;51.960;5.582;2023-03-21T09:19:47;101111.63;;;9.66;100.00
12987;BME280;58897;51.960;5.582;2023-03-21T09:22:16;101116.72;;;9.69;100.00
12987;BME280;58897;51.960;5.582;2023-03-21T09:24:46;101107.31;;;9.73;100.00
12987;BME280;58897;51.960;5.582;2023-03-21T09:27:17;101106.88;;;9.78;100.00
12987;BME280;58897;51.960;5.582;2023-03-21T09:29:46;101101.47;;;9.78;100.00
12987;BME280;58897;51.960;5.582;2023-03-21T09:32:13;101097.56;;;9.72;100.00
12987;BME280;58897;51.960;5.582;2023-03-21T09:34:39;101108.56;;;9.79;100.00
12987;BME280;58897;51.960;5.582;2023-03-21T09:37:07;101098.00;;;9.85;100.00
12987;BME280;58897;51.960;5.582;2023-03-21T09:39:42;101096.72;;;9.89;100.00
12987;BME280;58897;51.960;5.582;2023-03-21T09:42:20;101090.72;;;9.96;100.00
12987;BME280;58897;51.960;5.582;2023-03-21T09:47:44;101079.19;;;9.93;100.00
12987;BME280;58897;51.960;5.582;2023-03-21T09:53:00;101077.44;;;10.02;100.00
12987;BME280;58897;51.960;5.582;2023-03-21T09:55:33;101073.03;;;10.01;100.00
12987;BME280;58897;51.960;5.582;2023-03-21T09:58:07;101060.63;;;10.08;100.00
12987;BME280;58897;51.960;5.582;2023-03-21T10:00:42;101049.47;;;10.21;100.00
12987;BME280;58897;51.960;5.582;2023-03-21T10:03:23;101055.25;;;10.26;100.00
12987;BME280;58897;51.960;5.582;2023-03-21T10:05:52;101056.34;;;10.15;100.00
12987;BME280;58897;51.960;5.582;2023-03-21T10:08:29;101051.94;;;10.14;100.00
12987;BME280;58897;51.960;5.582;2023-03-21T10:11:03;101040.16;;;10.15;100.00
12987;BME280;58897;51.960;5.582;2023-03-21T10:13:34;101041.53;;;10.19;100.00
12987;BME280;58897;51.960;5.582;2023-03-21T10:16:14;101042.22;;;10.21;100.00
12987;BME280;58897;51.960;5.582;2023-03-21T10:18:43;101051.84;;;10.41;100.00
12987;BME280;58897;51.960;5.582;2023-03-21T10:21:20;101045.03;;;10.55;100.00
12987;BME280;58897;51.960;5.582;2023-03-21T10:24:13;101049.09;;;10.59;100.00
12987;BME280;58897;51.960;5.582;2023-03-21T10:26:42;101045.53;;;10.59;100.00
12987;BME280;58897;51.960;5.582;2023-03-21T10:29:11;101036.69;;;10.48;100.00
12987;BME280;58897;51.960;5.582;2023-03-21T10:31:40;101035.06;;;10.56;100.00
12987;BME280;58897;51.960;5.582;2023-03-21T10:34:35;101039.63;;;10.55;100.00
12987;BME280;58897;51.960;5.582;2023-03-21T10:37:03;101033.09;;;10.66;100.00
12987;BME280;58897;51.960;5.582;2023-03-21T10:39:39;101027.53;;;10.67;100.00
12987;BME280;58897;51.960;5.582;2023-03-21T10:42:24;101018.53;;;10.84;100.00
12987;BME280;58897;51.960;5.582;2023-03-21T10:44:53;101023.28;;;10.90;100.00
12987;BME280;58897;51.960;5.582;2023-03-21T10:47:26;101003.47;;;11.15;100.00
12987;BME280;58897;51.960;5.582;2023-03-21T10:49:53;101005.91;;;11.43;100.00
12987;BME280;58897;51.960;5.582;2023-03-21T10:52:41;100993.72;;;11.31;100.00
12987;BME280;58897;51.960;5.582;2023-03-21T10:55:24;101011.13;;;11.28;100.00
12987;BME280;58897;51.960;5.582;2023-03-21T10:57:59;100998.22;;;11.14;100.00
12987;BME280;58897;51.960;5.582;2023-03-21T11:00:33;101007.50;;;11.11;100.00
12987;BME280;58897;51.960;5.582;2023-03-21T11:03:01;101013.75;;;11.12;100.00
12987;BME280;58897;51.960;5.582;2023-03-21T11:05:38;101012.63;;;11.23;100.00
12987;BME280;58897;51.960;5.582;2023-03-21T11:08:11;101018.16;;;11.13;100.00
12987;BME280;58897;51.960;5.582;2023-03-21T11:13:26;101007.69;;;11.10;100.00
12987;BME280;58897;51.960;5.582;2023-03-21T11:18:31;101010.25;;;11.20;100.00
12987;BME280;58897;51.960;5.582;2023-03-21T11:21:04;101008.06;;;11.23;100.00
12987;BME280;58897;51.960;5.582;2023-03-21T11:23:33;100993.56;;;11.40;100.00
12987;BME280;58897;51.960;5.582;2023-03-21T11:26:01;100991.75;;;11.57;100.00
12987;BME280;58897;51.960;5.582;2023-03-21T11:28:36;100992.00;;;11.80;100.00
12987;BME280;58897;51.960;5.582;2023-03-21T11:31:03;100981.19;;;11.88;100.00
12987;BME280;58897;51.960;5.582;2023-03-21T11:36:24;100961.56;;;11.94;100.00
12987;BME280;58897;51.960;5.582;2023-03-21T11:38:56;100969.50;;;11.95;100.00
12987;BME280;58897;51.960;5.582;2023-03-21T11:41:28;100974.91;;;11.87;100.00
12987;BME280;58897;51.960;5.582;2023-03-21T11:43:55;100980.31;;;11.71;100.00
12987;BME280;58897;51.960;5.582;2023-03-21T11:46:27;100981.16;;;11.80;100.00
12987;BME280;58897;51.960;5.582;2023-03-21T11:48:56;100984.72;;;11.80;100.00
12987;BME280;58897;51.960;5.582;2023-03-21T11:51:40;100960.53;;;11.87;100.00
12987;BME280;58897;51.960;5.582;2023-03-21T11:54:11;100954.97;;;11.96;100.00
12987;BME280;58897;51.960;5.582;2023-03-21T11:56:46;100961.38;;;11.79;100.00
12987;BME280;58897;51.960;5.582;2023-03-21T12:07:26;100956.16;;;11.86;100.00
12987;BME280;58897;51.960;5.582;2023-03-21T12:10:25;100951.59;;;11.86;100.00
12987;BME280;58897;51.960;5.582;2023-03-21T12:15:47;100946.31;;;11.93;100.00
12987;BME280;58897;51.960;5.582;2023-03-21T12:21:19;100948.84;;;12.10;100.00
12987;BME280;58897;51.960;5.582;2023-03-21T12:24:02;100946.13;;;12.02;100.00
12987;BME280;58897;51.960;5.582;2023-03-21T12:32:09;100924.78;;;12.31;100.00
12987;BME280;58897;51.960;5.582;2023-03-21T12:35:10;100923.28;;;12.29;100.00
12987;BME280;58897;51.960;5.582;2023-03-21T12:37:54;100920.22;;;12.40;100.00
12987;BME280;58897;51.960;5.582;2023-03-21T12:43:26;100916.94;;;12.61;100.00
12987;BME280;58897;51.960;5.582;2023-03-21T12:46:00;100911.94;;;12.72;100.00
12987;BME280;58897;51.960;5.582;2023-03-21T12:48:41;100902.00;;;12.57;100.00
12987;BME280;58897;51.960;5.582;2023-03-21T12:51:12;100903.88;;;12.64;100.00
12987;BME280;58897;51.960;5.582;2023-03-21T12:53:46;100902.44;;;12.37;100.00
12987;BME280;58897;51.960;5.582;2023-03-21T12:56:19;100891.38;;;12.47;100.00
12987;BME280;58897;51.960;5.582;2023-03-21T12:59:01;100888.75;;;12.23;100.00
12987;BME280;58897;51.960;5.582;2023-03-21T13:01:28;100888.34;;;12.42;100.00
12987;BME280;58897;51.960;5.582;2023-03-21T13:04:49;100889.91;;;12.28;100.00
12987;BME280;58897;51.960;5.582;2023-03-21T13:06:51;100882.97;;;12.26;100.00
12987;BME280;58897;51.960;5.582;2023-03-21T13:09:34;100887.06;;;12.30;100.00
12987;BME280;58897;51.960;5.582;2023-03-21T13:12:39;100887.38;;;12.35;100.00
12987;BME280;58897;51.960;5.582;2023-03-21T13:21:15;100886.31;;;12.44;100.00
12987;BME280;58897;51.960;5.582;2023-03-21T13:23:58;100872.66;;;13.60;100.00
12987;BME280;58897;51.960;5.582;2023-03-21T13:26:38;100852.34;;;14.81;100.00
12987;BME280;58897;51.960;5.582;2023-03-21T13:29:13;100849.94;;;14.72;100.00
12987;BME280;58897;51.960;5.582;2023-03-21T13:31:47;100849.50;;;15.04;100.00
12987;BME280;58897;51.960;5.582;2023-03-21T13:34:22;100841.31;;;15.61;100.00
12987;BME280;58897;51.960;5.582;2023-03-21T13:36:50;100843.56;;;15.79;100.00
12987;BME280;58897;51.960;5.582;2023-03-21T13:39:20;100840.09;;;14.71;100.00
12987;BME280;58897;51.960;5.582;2023-03-21T13:41:49;100839.72;;;14.30;100.00
12987;BME280;58897;51.960;5.582;2023-03-21T13:47:41;100855.16;;;13.40;100.00
12987;BME280;58897;51.960;5.582;2023-03-21T13:55:44;100828.50;;;13.44;100.00
12987;BME280;58897;51.960;5.582;2023-03-21T13:58:31;100831.53;;;13.49;100.00
12987;BME280;58897;51.960;5.582;2023-03-21T14:04:04;100828.19;;;13.24;100.00
12987;BME280;58897;51.960;5.582;2023-03-21T14:07:01;100819.53;;;13.21;100.00
12987;BME280;58897;51.960;5.582;2023-03-21T14:09:43;100822.00;;;13.08;100.00
12987;BME280;58897;51.960;5.582;2023-03-21T14:12:26;100818.94;;;13.11;100.00
12987;BME280;58897;51.960;5.582;2023-03-21T14:17:58;100809.78;;;13.34;100.00
12987;BME280;58897;51.960;5.582;2023-03-21T14:20:30;100812.75;;;13.62;100.00
12987;BME280;58897;51.960;5.582;2023-03-21T14:22:57;100809.03;;;13.40;100.00
12987;BME280;58897;51.960;5.582;2023-03-21T14:25:32;100811.81;;;13.32;100.00